Time;durP1;ratioP1;P1;durP2;ratioP2;P2;SDS_P1;SDS_P2;PMS_P1;PMS_P2;Temp;Humidity;BMP_temperature;BMP_pressure;BME280_temperature;BME280_humidity;BME280_pressure;Samples;Min_cycle;Max_cycle;Signal;HPM_P1;HPM_P2
2022/04/08 00:00:07;;;;;;;3.38;1.65;;;7.20;99.90;;;;;;5078110;28;20540;-58
2022/04/08 00:02:35;;;;;;;1.98;1.65;;;7.10;99.90;;;;;;5096189;28;20273;-58
2022/04/08 00:05:01;;;;;;;2.10;1.33;;;7.10;99.90;;;;;;5094987;28;20641;-58
2022/04/08 00:07:27;;;;;;;2.80;1.90;;;7.10;99.90;;;;;;5094850;28;20178;-58
2022/04/08 00:09:52;;;;;;;1.92;1.40;;;7.00;99.90;;;;;;5094821;28;20226;-59
2022/04/08 00:12:18;;;;;;;2.88;1.40;;;7.00;99.90;;;;;;5094282;28;20213;-58
2022/04/08 00:14:43;;;;;;;1.42;1.13;;;7.00;99.90;;;;;;5094496;28;20188;-59
2022/04/08 00:17:09;;;;;;;3.35;1.65;;;7.00;99.90;;;;;;5076847;28;20173;-58
2022/04/08 00:19:36;;;;;;;2.33;1.58;;;7.00;99.90;;;;;;5094607;28;20188;-58
2022/04/08 00:22:04;;;;;;;2.75;1.52;;;6.90;99.90;;;;;;5094614;28;20589;-58
2022/04/08 00:24:29;;;;;;;2.60;1.60;;;6.90;99.90;;;;;;5094644;28;20167;-58
2022/04/08 00:26:55;;;;;;;3.40;1.85;;;6.90;99.90;;;;;;5094511;28;20178;-58
2022/04/08 00:29:21;;;;;;;3.72;2.00;;;6.90;99.90;;;;;;5094439;28;20239;-58
2022/04/08 00:31:46;;;;;;;3.00;1.92;;;6.90;99.90;;;;;;5094660;28;20300;-58
2022/04/08 00:34:12;;;;;;;3.25;1.50;;;6.90;99.90;;;;;;5094339;28;20219;-58
2022/04/08 00:36:37;;;;;;;1.88;1.42;;;6.80;99.90;;;;;;5059811;28;20250;-59
2022/04/08 00:39:03;;;;;;;1.58;1.35;;;6.80;99.90;;;;;;5076489;28;20200;-59
2022/04/08 00:41:29;;;;;;;1.48;1.38;;;6.70;99.90;;;;;;5094366;28;20178;-59
2022/04/08 00:43:54;;;;;;;1.23;1.00;;;6.70;99.90;;;;;;5076094;28;20555;-58
2022/04/08 00:46:20;;;;;;;4.25;1.42;;;6.70;99.90;;;;;;5094054;28;20671;-58
2022/04/08 00:48:45;;;;;;;2.65;1.40;;;6.70;99.90;;;;;;5094299;28;20176;-58
2022/04/08 00:51:13;;;;;;;1.42;1.33;;;6.70;99.90;;;;;;5094224;28;20257;-58
2022/04/08 00:53:39;;;;;;;3.47;1.63;;;6.70;99.90;;;;;;5094108;28;20208;-58
2022/04/08 00:56:05;;;;;;;1.63;1.20;;;6.70;99.90;;;;;;5094060;28;20193;-59
2022/04/08 00:58:32;;;;;;;1.92;1.42;;;6.60;99.90;;;;;;5075837;28;20664;-58
2022/04/08 01:00:58;;;;;;;1.55;1.40;;;6.60;99.90;;;;;;5094161;28;20173;-58
2022/04/08 01:03:24;;;;;;;4.15;1.30;;;6.70;99.90;;;;;;5054654;28;1119454;-58
2022/04/08 01:05:49;;;;;;;2.10;1.55;;;6.60;99.90;;;;;;5094845;28;20170;-58
2022/04/08 01:08:17;;;;;;;2.00;1.38;;;6.50;99.90;;;;;;5076760;28;20178;-58
2022/04/08 01:10:44;;;;;;;2.05;1.38;;;6.50;99.90;;;;;;5094672;28;20618;-58
2022/04/08 01:13:10;;;;;;;1.95;1.67;;;6.50;99.90;;;;;;5094482;28;20668;-58
2022/04/08 01:15:35;;;;;;;2.88;1.80;;;6.40;99.90;;;;;;5094877;28;20181;-58
2022/04/08 01:18:01;;;;;;;3.13;1.40;;;6.50;99.90;;;;;;5094749;28;20522;-58
2022/04/08 01:20:27;;;;;;;1.75;1.55;;;6.40;99.90;;;;;;5094742;28;20266;-58
2022/04/08 01:22:53;;;;;;;2.40;1.50;;;6.40;99.90;;;;;;5093900;28;20216;-58
2022/04/08 01:25:18;;;;;;;2.55;1.30;;;6.40;99.90;;;;;;5076266;28;20588;-59
2022/04/08 01:27:44;;;;;;;2.15;1.50;;;6.40;99.90;;;;;;5094388;28;20521;-59
2022/04/08 01:30:15;;;;;;;1.20;1.10;;;6.40;99.90;;;;;;5094533;28;20201;-58
2022/04/08 01:32:41;;;;;;;1.98;1.60;;;6.40;99.90;;;;;;5094446;28;20205;-58
2022/04/08 01:35:07;;;;;;;2.42;1.60;;;6.40;99.90;;;;;;5094371;28;20185;-59
2022/04/08 01:37:32;;;;;;;1.92;1.20;;;6.20;99.90;;;;;;5094492;28;20628;-59
2022/04/08 01:39:58;;;;;;;1.40;1.30;;;6.20;99.90;;;;;;5094190;28;20252;-59
2022/04/08 01:42:24;;;;;;;1.60;1.40;;;6.10;99.90;;;;;;5094157;28;20312;-59
2022/04/08 01:44:52;;;;;;;1.45;1.20;;;6.10;99.90;;;;;;5094386;28;20173;-59
2022/04/08 01:47:18;;;;;;;1.23;1.02;;;6.10;99.90;;;;;;5094326;28;20264;-59
2022/04/08 01:49:43;;;;;;;1.15;1.10;;;6.10;99.90;;;;;;5094014;28;20264;-59
2022/04/08 01:52:09;;;;;;;1.38;1.27;;;6.10;99.90;;;;;;5094026;28;20200;-59
2022/04/08 01:54:34;;;;;;;2.15;1.10;;;6.00;99.90;;;;;;5093955;28;20177;-59
2022/04/08 01:57:00;;;;;;;1.83;1.15;;;6.00;99.90;;;;;;5094517;28;20621;-59
2022/04/08 01:59:26;;;;;;;1.48;1.20;;;5.90;99.90;;;;;;5094267;28;20230;-58
2022/04/08 02:01:51;;;;;;;1.42;1.20;;;5.90;99.90;;;;;;5094056;28;20181;-58
2022/04/08 02:04:17;;;;;;;1.30;1.20;;;6.00;99.90;;;;;;5093566;28;20251;-58
2022/04/08 02:06:43;;;;;;;1.23;1.13;;;5.90;99.90;;;;;;5093773;28;20533;-58
2022/04/08 02:09:09;;;;;;;1.55;0.98;;;5.90;99.90;;;;;;5093603;28;20215;-58
2022/04/08 02:11:36;;;;;;;2.15;1.20;;;5.80;99.90;;;;;;5093549;28;20186;-59
2022/04/08 02:14:03;;;;;;;1.48;1.00;;;5.70;99.90;;;;;;5093831;28;20255;-58
2022/04/08 02:16:28;;;;;;;1.77;1.15;;;5.80;99.90;;;;;;5093851;28;20638;-58
2022/04/08 02:18:54;;;;;;;2.03;1.60;;;5.70;99.90;;;;;;5093727;28;20313;-58
2022/04/08 02:21:20;;;;;;;2.03;1.35;;;5.60;99.90;;;;;;5093602;28;20234;-58
2022/04/08 02:23:46;;;;;;;1.50;1.40;;;5.50;99.90;;;;;;5093689;28;20636;-58
2022/04/08 02:26:13;;;;;;;1.63;1.30;;;5.50;99.90;;;;;;5075664;28;20224;-58
2022/04/08 02:28:39;;;;;;;1.33;1.20;;;5.50;99.90;;;;;;5093593;28;20177;-58
2022/04/08 02:31:05;;;;;;;1.40;1.30;;;5.50;99.90;;;;;;5093535;28;20176;-58
2022/04/08 02:33:31;;;;;;;2.33;1.10;;;5.60;99.90;;;;;;5093609;28;20205;-58
2022/04/08 02:35:57;;;;;;;1.40;1.30;;;5.60;99.90;;;;;;5093221;28;20545;-58
2022/04/08 02:38:23;;;;;;;1.60;1.40;;;5.60;99.90;;;;;;5093203;28;20181;-58
2022/04/08 02:40:48;;;;;;;1.45;1.02;;;5.50;99.90;;;;;;5093262;28;20178;-58
2022/04/08 02:43:14;;;;;;;1.40;1.30;;;5.50;99.90;;;;;;5093442;28;20191;-58
2022/04/08 02:45:39;;;;;;;2.38;1.25;;;5.60;99.90;;;;;;5093397;28;20646;-58
2022/04/08 02:48:05;;;;;;;1.73;1.33;;;5.60;99.90;;;;;;5093264;28;20178;-58
2022/04/08 02:50:31;;;;;;;2.45;1.38;;;5.60;99.90;;;;;;5093260;28;20659;-58
2022/04/08 02:52:56;;;;;;;2.00;1.60;;;5.60;99.90;;;;;;5093216;28;20636;-59
2022/04/08 02:55:22;;;;;;;2.33;1.80;;;5.50;99.90;;;;;;5093303;28;20272;-59
2022/04/08 02:57:50;;;;;;;3.30;1.70;;;5.60;99.90;;;;;;5093309;28;20229;-59
2022/04/08 03:00:18;;;;;;;2.00;1.65;;;5.50;99.90;;;;;;5092990;28;20632;-59
2022/04/08 03:02:44;;;;;;;1.83;1.55;;;5.50;99.90;;;;;;5093038;28;20652;-58
2022/04/08 03:05:10;;;;;;;1.60;1.48;;;5.50;99.90;;;;;;5092940;28;20280;-58
2022/04/08 03:07:36;;;;;;;1.95;1.50;;;5.50;99.90;;;;;;5092915;28;20181;-58
2022/04/08 03:10:03;;;;;;;1.83;1.40;;;5.50;99.90;;;;;;5093196;28;20646;-58
2022/04/08 03:12:29;;;;;;;3.45;1.63;;;5.50;99.90;;;;;;5092948;28;20206;-58
2022/04/08 03:14:55;;;;;;;1.55;1.40;;;5.50;99.90;;;;;;5093040;28;20526;-58
2022/04/08 03:17:20;;;;;;;1.75;1.45;;;5.40;99.90;;;;;;5074977;28;20264;-58
2022/04/08 03:19:46;;;;;;;1.87;1.73;;;5.40;99.90;;;;;;5092866;28;20640;-58
2022/04/08 03:22:12;;;;;;;3.08;1.45;;;5.30;99.90;;;;;;5074790;28;20209;-58
2022/04/08 03:24:37;;;;;;;2.70;1.42;;;5.20;99.90;;;;;;5093044;28;20177;-59
2022/04/08 03:27:03;;;;;;;3.22;2.15;;;5.20;99.90;;;;;;5092838;28;20197;-58
2022/04/08 03:29:29;;;;;;;2.00;1.58;;;5.20;99.90;;;;;;5092914;28;20177;-58
2022/04/08 03:31:54;;;;;;;2.77;1.57;;;5.20;99.90;;;;;;5092795;28;20178;-58
2022/04/08 03:34:20;;;;;;;2.55;1.60;;;5.10;99.90;;;;;;5092517;28;20303;-58
2022/04/08 03:36:47;;;;;;;2.13;1.63;;;5.20;99.90;;;;;;5092745;28;20208;-58
2022/04/08 03:39:16;;;;;;;2.60;1.90;;;5.10;99.90;;;;;;5092886;28;20189;-58
2022/04/08 03:41:41;;;;;;;1.77;1.63;;;5.10;99.90;;;;;;5092771;28;20177;-58
2022/04/08 03:44:07;;;;;;;2.28;1.63;;;5.10;99.90;;;;;;5092714;28;20177;-58
2022/04/08 03:46:33;;;;;;;2.00;1.60;;;5.00;99.90;;;;;;5093552;28;20182;-59
2022/04/08 03:48:58;;;;;;;1.90;1.75;;;5.00;99.90;;;;;;5096400;28;20223;-59
2022/04/08 03:51:24;;;;;;;2.23;1.80;;;5.00;99.90;;;;;;5096280;28;20182;-59
2022/04/08 03:53:50;;;;;;;1.95;1.70;;;4.90;99.90;;;;;;5096251;28;20217;-59
2022/04/08 03:56:15;;;;;;;2.28;1.95;;;4.90;99.90;;;;;;5078256;28;20221;-58
2022/04/08 03:58:41;;;;;;;2.70;2.30;;;4.90;99.90;;;;;;5096584;28;20182;-58
2022/04/08 04:01:07;;;;;;;3.17;1.83;;;4.90;99.90;;;;;;5096283;28;20177;-58
2022/04/08 04:03:32;;;;;;;2.10;1.90;;;4.90;99.90;;;;;;5096286;28;20193;-58
2022/04/08 04:05:58;;;;;;;2.83;2.30;;;4.90;99.90;;;;;;5095980;28;20181;-58
2022/04/08 04:08:24;;;;;;;2.50;2.28;;;4.90;99.90;;;;;;5096292;28;20272;-58
2022/04/08 04:10:49;;;;;;;3.83;2.67;;;4.90;99.90;;;;;;5096223;28;20176;-58
2022/04/08 04:13:16;;;;;;;4.20;2.40;;;4.90;99.90;;;;;;5095910;28;20250;-58
2022/04/08 04:15:41;;;;;;;2.72;1.98;;;4.80;99.90;;;;;;5095947;28;20182;-58
2022/04/08 04:18:08;;;;;;;3.00;2.22;;;4.80;99.90;;;;;;5095859;28;20226;-58
2022/04/08 04:20:34;;;;;;;2.67;2.08;;;4.80;99.90;;;;;;5095969;28;20177;-58
2022/04/08 04:22:59;;;;;;;2.55;2.25;;;4.80;99.90;;;;;;5095871;28;20177;-58
2022/04/08 04:25:26;;;;;;;3.43;2.13;;;4.80;99.90;;;;;;5095846;28;20178;-58
2022/04/08 04:27:51;;;;;;;3.03;2.22;;;4.80;99.90;;;;;;5095667;28;20652;-58
2022/04/08 04:30:17;;;;;;;2.90;2.42;;;4.90;99.90;;;;;;5095628;28;20178;-59
2022/04/08 04:32:43;;;;;;;4.38;2.15;;;4.80;99.90;;;;;;5095583;28;20701;-59
2022/04/08 04:35:09;;;;;;;3.47;2.43;;;4.80;99.90;;;;;;5095372;28;20208;-58
2022/04/08 04:37:35;;;;;;;3.03;2.10;;;4.80;99.90;;;;;;5095572;28;20560;-58
2022/04/08 04:40:01;;;;;;;3.78;2.40;;;4.80;99.90;;;;;;5095603;28;20173;-58
2022/04/08 04:42:28;;;;;;;2.77;2.03;;;4.80;99.90;;;;;;5095470;28;20188;-58
2022/04/08 04:44:54;;;;;;;2.73;2.37;;;4.70;99.90;;;;;;5095407;28;20303;-58
2022/04/08 04:47:20;;;;;;;3.23;2.03;;;4.70;99.90;;;;;;5095370;28;20208;-58
2022/04/08 04:49:46;;;;;;;3.50;2.40;;;4.70;99.90;;;;;;5095168;28;20649;-58
2022/04/08 04:52:11;;;;;;;3.28;2.50;;;4.70;99.90;;;;;;5095218;28;20180;-58
2022/04/08 04:54:37;;;;;;;3.53;2.42;;;4.70;99.90;;;;;;5095238;28;20187;-59
2022/04/08 04:57:03;;;;;;;3.27;2.60;;;4.70;99.90;;;;;;5095049;28;20212;-58
2022/04/08 04:59:29;;;;;;;2.58;2.17;;;4.70;99.90;;;;;;5093916;28;20185;-58
2022/04/08 05:01:55;;;;;;;4.18;2.63;;;4.70;99.90;;;;;;5095055;28;20181;-59
2022/04/08 05:04:20;;;;;;;3.00;2.45;;;4.70;99.90;;;;;;5094585;28;20696;-58
2022/04/08 05:06:46;;;;;;;3.17;1.90;;;4.70;99.90;;;;;;5095188;28;20173;-58
2022/04/08 05:09:12;;;;;;;3.13;2.40;;;4.70;99.90;;;;;;5094291;28;20178;-58
2022/04/08 05:11:37;;;;;;;3.47;2.20;;;4.60;99.90;;;;;;5094345;28;20577;-58
2022/04/08 05:14:03;;;;;;;2.60;2.28;;;4.70;99.90;;;;;;5094794;28;20296;-58
2022/04/08 05:16:29;;;;;;;3.93;2.50;;;4.60;99.90;;;;;;5094523;28;20271;-58
2022/04/08 05:18:55;;;;;;;3.67;2.40;;;4.60;99.90;;;;;;5094667;28;20208;-58
2022/04/08 05:21:21;;;;;;;2.93;2.60;;;4.60;99.90;;;;;;5094769;28;20599;-58
2022/04/08 05:23:47;;;;;;;4.63;2.40;;;4.70;99.90;;;;;;5094657;28;20212;-58
2022/04/08 05:26:14;;;;;;;4.30;2.40;;;4.70;99.90;;;;;;5094879;28;20623;-58
2022/04/08 05:28:40;;;;;;;3.27;2.57;;;4.70;99.90;;;;;;5094570;28;20173;-58
2022/04/08 05:31:05;;;;;;;3.53;2.92;;;4.80;99.90;;;;;;5094378;28;20196;-58
2022/04/08 05:33:31;;;;;;;3.67;2.67;;;4.80;99.90;;;;;;5091874;28;20515;-58
2022/04/08 05:35:57;;;;;;;3.00;2.47;;;4.80;99.90;;;;;;5094401;28;20208;-58
2022/04/08 05:38:22;;;;;;;3.20;2.80;;;4.90;99.90;;;;;;5094370;28;20586;-58
2022/04/08 05:40:49;;;;;;;3.47;2.57;;;4.90;99.90;;;;;;5094273;28;20173;-58
2022/04/08 05:43:16;;;;;;;4.13;3.15;;;4.90;99.90;;;;;;5094085;28;20189;-58
2022/04/08 05:45:41;;;;;;;3.43;2.70;;;4.90;99.90;;;;;;5094138;28;20307;-58
2022/04/08 05:48:07;;;;;;;6.10;2.63;;;5.00;99.90;;;;;;5094032;28;20695;-58
2022/04/08 05:50:33;;;;;;;2.90;2.30;;;5.00;99.90;;;;;;5094212;28;20173;-58
2022/04/08 05:52:59;;;;;;;4.97;2.67;;;5.10;99.90;;;;;;5094169;28;20209;-58
2022/04/08 05:55:24;;;;;;;3.25;2.95;;;5.10;99.90;;;;;;5094185;28;20193;-58
2022/04/08 05:57:53;;;;;;;3.22;2.70;;;5.20;99.90;;;;;;5094163;28;20203;-58
2022/04/08 06:00:20;;;;;;;4.50;2.73;;;5.30;99.90;;;;;;5093942;28;20183;-58
2022/04/08 06:02:47;;;;;;;3.88;3.08;;;5.40;99.90;;;;;;5076190;28;20200;-59
2022/04/08 06:05:19;;;;;;;4.55;3.00;;;5.50;99.90;;;;;;5093750;28;20661;-58
2022/04/08 06:07:50;;;;;;;4.50;3.25;;;5.60;99.90;;;;;;5094124;28;20188;-58
2022/04/08 06:10:18;;;;;;;4.50;2.97;;;5.80;99.90;;;;;;5093360;28;20231;-58
2022/04/08 06:12:47;;;;;;;6.15;2.60;;;5.80;99.90;;;;;;5093630;28;20200;-58
2022/04/08 06:15:13;;;;;;;4.25;2.60;;;5.90;99.90;;;;;;5093824;28;20260;-58
2022/04/08 06:17:39;;;;;;;2.63;1.95;;;5.90;99.90;;;;;;5075348;28;20612;-58
2022/04/08 06:20:13;;;;;;;4.20;2.22;;;6.00;99.90;;;;;;5093656;28;20215;-58
2022/04/08 06:22:39;;;;;;;2.72;2.00;;;6.00;99.90;;;;;;5093669;28;20497;-58
2022/04/08 06:25:07;;;;;;;3.00;2.00;;;6.10;99.90;;;;;;5093574;28;20697;-58
2022/04/08 06:27:33;;;;;;;4.75;2.17;;;6.10;99.90;;;;;;5093342;28;20177;-58
2022/04/08 06:29:58;;;;;;;2.95;2.20;;;6.20;99.90;;;;;;5093574;28;20632;-58
2022/04/08 06:32:24;;;;;;;2.88;2.42;;;6.10;99.90;;;;;;5093275;28;20178;-58
2022/04/08 06:34:50;;;;;;;3.10;2.10;;;6.10;99.90;;;;;;5075427;28;20628;-58
2022/04/08 06:37:16;;;;;;;3.03;2.20;;;6.10;99.90;;;;;;5093316;28;20174;-58
2022/04/08 06:39:41;;;;;;;3.63;2.30;;;6.20;99.90;;;;;;5058550;28;20186;-58
2022/04/08 06:42:07;;;;;;;2.55;2.30;;;6.30;99.90;;;;;;5093181;28;20636;-58
2022/04/08 06:44:33;;;;;;;4.20;2.45;;;6.30;99.90;;;;;;5093115;28;20189;-58
2022/04/08 06:46:59;;;;;;;3.95;2.22;;;6.40;99.90;;;;;;5075225;28;20184;-58
2022/04/08 06:49:25;;;;;;;7.90;2.50;;;6.30;99.90;;;;;;5058460;28;20263;-58
2022/04/08 06:51:53;;;;;;;7.10;2.40;;;6.30;99.90;;;;;;5093238;28;20219;-58
2022/04/08 06:54:18;;;;;;;3.05;1.80;;;6.40;99.90;;;;;;5093081;28;20204;-59
2022/04/08 06:56:44;;;;;;;2.72;1.70;;;6.40;99.90;;;;;;5093035;28;20636;-58
2022/04/08 06:59:11;;;;;;;10.57;2.38;;;6.40;99.90;;;;;;5075311;28;20650;-58
2022/04/08 07:01:36;;;;;;;2.30;1.60;;;6.40;99.90;;;;;;5075278;28;20217;-58
2022/04/08 07:04:02;;;;;;;3.85;1.70;;;6.40;99.90;;;;;;5058454;28;20222;-58
2022/04/08 07:06:29;;;;;;;3.85;1.85;;;6.50;99.90;;;;;;5093021;28;20235;-58
2022/04/08 07:08:54;;;;;;;2.20;1.85;;;6.50;99.90;;;;;;5093017;28;20233;-58
2022/04/08 07:11:20;;;;;;;1.90;1.65;;;6.50;99.90;;;;;;5092899;28;20181;-58
2022/04/08 07:13:46;;;;;;;3.70;1.63;;;6.60;99.90;;;;;;5093120;28;20209;-58
2022/04/08 07:16:11;;;;;;;3.15;1.70;;;6.60;99.90;;;;;;5093295;28;20185;-58
2022/04/08 07:18:37;;;;;;;1.63;1.45;;;6.70;99.90;;;;;;5093102;28;20207;-58
2022/04/08 07:21:02;;;;;;;1.63;1.35;;;6.60;99.90;;;;;;5093629;28;20192;-58
2022/04/08 07:23:28;;;;;;;1.30;1.20;;;6.70;99.90;;;;;;5096949;28;20185;-58
2022/04/08 07:25:54;;;;;;;3.35;1.67;;;6.80;99.90;;;;;;5096705;28;20174;-58
2022/04/08 07:28:20;;;;;;;1.65;1.50;;;6.80;99.90;;;;;;5096997;28;20181;-58
2022/04/08 07:30:48;;;;;;;1.60;1.42;;;6.90;99.90;;;;;;5096905;28;20201;-58
2022/04/08 07:33:13;;;;;;;2.35;1.60;;;7.00;99.90;;;;;;5096556;28;20204;-59
2022/04/08 07:35:39;;;;;;;3.33;1.92;;;7.00;99.90;;;;;;5096798;28;20614;-59
2022/04/08 07:38:05;;;;;;;1.67;1.20;;;7.10;99.90;;;;;;5096620;28;20181;-58
2022/04/08 07:40:31;;;;;;;2.50;1.50;;;7.20;99.90;;;;;;5096437;28;20189;-58
2022/04/08 07:42:57;;;;;;;1.55;1.45;;;7.20;99.90;;;;;;5097012;28;20174;-58
2022/04/08 07:45:27;;;;;;;1.63;1.30;;;7.30;99.90;;;;;;5096549;28;20182;-58
2022/04/08 07:47:58;;;;;;;1.85;1.55;;;7.40;99.90;;;;;;5096676;28;20181;-58
2022/04/08 07:50:26;;;;;;;1.35;1.25;;;7.30;99.90;;;;;;5096537;28;20239;-58
2022/04/08 07:52:52;;;;;;;1.95;1.58;;;7.50;99.90;;;;;;5096202;28;20209;-59
2022/04/08 07:55:20;;;;;;;2.40;1.33;;;7.60;99.90;;;;;;5096585;28;20181;-58
2022/04/08 07:57:51;;;;;;;2.30;1.45;;;7.70;99.90;;;;;;5096389;28;20189;-58
2022/04/08 08:00:19;;;;;;;2.03;1.58;;;7.70;99.90;;;;;;5096372;28;20178;-58
2022/04/08 08:02:45;;;;;;;1.85;1.48;;;7.80;99.90;;;;;;5096070;28;20182;-58
2022/04/08 08:05:12;;;;;;;1.42;1.15;;;7.80;99.90;;;;;;5095996;28;20575;-58
2022/04/08 08:07:52;;;;;;;1.58;1.48;;;7.90;99.90;;;;;;5095861;28;20181;-58
2022/04/08 08:10:20;;;;;;;1.60;1.35;;;7.90;99.90;;;;;;5096230;28;20180;-58
2022/04/08 08:12:47;;;;;;;2.10;1.30;;;8.00;99.90;;;;;;5095915;28;20212;-58
2022/04/08 08:15:13;;;;;;;1.25;1.00;;;8.10;99.90;;;;;;5096032;28;20625;-58
2022/04/08 08:17:39;;;;;;;2.17;1.33;;;8.10;99.90;;;;;;5095906;28;20633;-58
2022/04/08 08:20:07;;;;;;;1.67;1.25;;;8.10;99.90;;;;;;5095719;28;20261;-58
2022/04/08 08:22:33;;;;;;;1.38;1.20;;;8.20;99.90;;;;;;5095784;28;20238;-58
2022/04/08 08:24:58;;;;;;;1.70;1.33;;;8.30;99.90;;;;;;5095897;28;20182;-58
2022/04/08 08:27:24;;;;;;;1.45;1.25;;;8.40;99.90;;;;;;5096039;28;20182;-58
2022/04/08 08:29:50;;;;;;;2.05;1.30;;;8.50;99.90;;;;;;5095658;28;20177;-58
2022/04/08 08:32:16;;;;;;;2.08;1.40;;;8.50;99.90;;;;;;5095178;28;20201;-58
2022/04/08 08:34:42;;;;;;;1.85;1.23;;;8.60;99.90;;;;;;5095325;28;20282;-58
2022/04/08 08:37:08;;;;;;;2.55;1.70;;;8.70;99.90;;;;;;5095688;28;20174;-58
2022/04/08 08:39:33;;;;;;;1.30;1.20;;;8.70;99.90;;;;;;5095675;28;20695;-58
2022/04/08 08:41:59;;;;;;;1.33;1.20;;;8.60;99.90;;;;;;5095531;28;20178;-58
2022/04/08 08:44:25;;;;;;;1.38;1.25;;;8.70;99.90;;;;;;5095389;28;20268;-59
2022/04/08 08:46:52;;;;;;;2.30;1.38;;;8.70;99.90;;;;;;5095312;28;20220;-58
2022/04/08 08:49:19;;;;;;;1.50;1.17;;;8.80;99.90;;;;;;5095208;28;20178;-58
2022/04/08 08:51:57;;;;;;;1.55;1.13;;;8.80;99.90;;;;;;5095542;28;20252;-58
2022/04/08 08:54:23;;;;;;;1.40;1.30;;;8.70;99.90;;;;;;5095328;28;20202;-58
2022/04/08 08:56:49;;;;;;;1.20;1.10;;;8.80;99.90;;;;;;5077093;28;20536;-59
2022/04/08 08:59:17;;;;;;;1.80;1.27;;;8.80;99.90;;;;;;5095097;28;20182;-58
2022/04/08 09:01:43;;;;;;;1.27;1.17;;;8.70;99.90;;;;;;5076683;28;20174;-59
2022/04/08 09:04:08;;;;;;;2.05;1.30;;;8.70;99.90;;;;;;5095432;28;20190;-58
2022/04/08 09:06:41;;;;;;;1.40;1.30;;;8.70;99.90;;;;;;5094836;28;20193;-59
2022/04/08 09:09:07;;;;;;;1.25;1.15;;;8.70;99.90;;;;;;5095094;28;20166;-59
2022/04/08 09:11:33;;;;;;;1.85;1.35;;;8.60;99.90;;;;;;5094800;28;20174;-58
2022/04/08 09:14:03;;;;;;;3.10;1.60;;;8.90;99.90;;;;;;5094673;28;20201;-58
2022/04/08 09:16:30;;;;;;;2.28;1.40;;;8.90;99.90;;;;;;5094587;28;20184;-58
2022/04/08 09:18:56;;;;;;;2.53;1.63;;;8.80;99.90;;;;;;5094511;28;20544;-58
2022/04/08 09:21:26;;;;;;;1.67;1.45;;;8.90;99.90;;;;;;5094827;28;20195;-58
2022/04/08 09:23:52;;;;;;;1.52;1.40;;;8.70;99.90;;;;;;5094667;28;20170;-58
2022/04/08 09:26:19;;;;;;;1.33;1.23;;;8.80;99.90;;;;;;5094683;28;20178;-59
2022/04/08 09:28:45;;;;;;;2.97;1.50;;;8.80;99.90;;;;;;5094415;28;20273;-59
2022/04/08 09:31:18;;;;;;;3.33;2.08;;;8.80;99.90;;;;;;5094820;28;20578;-58
2022/04/08 09:33:54;;;;;;;2.85;2.00;;;9.00;99.90;;;;;;5094230;28;20240;-58
2022/04/08 09:36:30;;;;;;;3.08;2.00;;;9.00;99.90;;;;;;5094315;28;20640;-58
2022/04/08 09:38:56;;;;;;;2.75;1.60;;;9.10;99.90;;;;;;5094330;28;20225;-58
2022/04/08 09:41:43;;;;;;;2.65;1.55;;;9.20;99.90;;;;;;5094191;28;20199;-58
2022/04/08 09:44:10;;;;;;;1.73;1.50;;;9.40;99.90;;;;;;5093856;28;20170;-58
2022/04/08 09:46:36;;;;;;;1.60;1.50;;;9.40;99.90;;;;;;5094197;28;20238;-58
2022/04/08 09:49:06;;;;;;;1.48;1.38;;;9.40;99.90;;;;;;5076108;28;20196;-59
2022/04/08 09:51:38;;;;;;;2.03;1.52;;;9.40;99.90;;;;;;5094097;28;20659;-58
2022/04/08 09:54:17;;;;;;;1.67;1.42;;;9.40;99.90;;;;;;5094450;28;20558;-59
2022/04/08 09:56:44;;;;;;;2.15;1.60;;;9.40;99.90;;;;;;5094115;28;20529;-58
2022/04/08 09:59:14;;;;;;;1.50;1.40;;;9.30;99.90;;;;;;5093868;28;20182;-58
2022/04/08 10:01:44;;;;;;;2.00;1.25;;;9.30;99.90;;;;;;5093917;28;20166;-58
2022/04/08 10:04:10;;;;;;;2.15;1.70;;;9.20;99.90;;;;;;5093741;28;20200;-58
2022/04/08 10:06:37;;;;;;;3.05;1.77;;;9.20;99.90;;;;;;5093927;28;20654;-58
2022/04/08 10:09:05;;;;;;;1.95;1.20;;;9.20;99.90;;;;;;5093934;28;20227;-58
2022/04/08 10:11:44;;;;;;;1.85;1.50;;;9.10;99.90;;;;;;5093833;28;20216;-58
2022/04/08 10:14:40;;;;;;;2.40;1.60;;;9.10;99.90;;;;;;5093594;28;20253;-58
2022/04/08 10:17:07;;;;;;;2.00;1.45;;;9.10;99.90;;;;;;5093774;28;20251;-58
2022/04/08 10:19:34;;;;;;;1.40;1.30;;;9.10;99.90;;;;;;5093696;28;20655;-59
2022/04/08 10:22:00;;;;;;;1.48;1.20;;;9.20;99.90;;;;;;5093697;28;20166;-59
2022/04/08 10:24:28;;;;;;;3.33;1.52;;;9.20;99.90;;;;;;5075448;28;20186;-58
2022/04/08 10:26:58;;;;;;;1.67;1.17;;;9.20;99.90;;;;;;5093522;28;20193;-58
2022/04/08 10:29:24;;;;;;;3.22;1.67;;;9.30;99.90;;;;;;5093448;28;20165;-59
2022/04/08 10:31:57;;;;;;;2.17;1.52;;;9.30;99.90;;;;;;5093536;28;20173;-58
2022/04/08 10:34:24;;;;;;;1.40;1.20;;;9.30;99.90;;;;;;5093552;28;20205;-58
2022/04/08 10:36:50;;;;;;;2.72;1.60;;;9.20;99.90;;;;;;5093430;28;20184;-58
2022/04/08 10:39:18;;;;;;;2.42;1.50;;;9.30;99.90;;;;;;5093508;28;20265;-58
2022/04/08 10:41:47;;;;;;;1.95;1.35;;;9.40;99.90;;;;;;5093158;28;20170;-58
2022/04/08 10:44:13;;;;;;;4.03;1.52;;;9.40;99.90;;;;;;5093429;28;20201;-58
2022/04/08 10:46:51;;;;;;;1.90;1.40;;;9.40;99.90;;;;;;5093287;28;20197;-58
2022/04/08 10:49:17;;;;;;;1.48;1.13;;;9.40;99.90;;;;;;5093300;28;20180;-58
2022/04/08 10:51:45;;;;;;;1.73;1.20;;;9.40;99.90;;;;;;5075154;28;20174;-58
2022/04/08 10:54:11;;;;;;;1.55;1.13;;;9.40;99.90;;;;;;5092980;28;20284;-58
2022/04/08 10:56:37;;;;;;;1.90;1.55;;;9.60;99.90;;;;;;5095938;28;20239;-58
2022/04/08 10:59:04;;;;;;;1.63;0.90;;;9.50;99.90;;;;;;5097387;28;20177;-58
2022/04/08 11:01:34;;;;;;;2.40;1.17;;;9.60;99.90;;;;;;5097386;28;20174;-58
2022/04/08 11:04:07;;;;;;;2.00;1.10;;;9.60;99.90;;;;;;5097458;28;20707;-58
2022/04/08 11:06:34;;;;;;;1.10;1.00;;;9.70;99.90;;;;;;5097050;28;20170;-58
2022/04/08 11:09:12;;;;;;;0.95;0.80;;;9.70;99.90;;;;;;5097546;28;20178;-58
2022/04/08 11:11:42;;;;;;;1.38;0.90;;;9.60;99.90;;;;;;5097230;28;20536;-58
2022/04/08 11:14:09;;;;;;;1.30;1.00;;;9.60;99.90;;;;;;5097135;28;20250;-59
2022/04/08 11:16:39;;;;;;;2.40;1.10;;;9.60;99.90;;;;;;5078857;28;20173;-59
2022/04/08 11:19:09;;;;;;;1.10;0.90;;;9.70;99.90;;;;;;5097029;28;20185;-59
2022/04/08 11:21:40;;;;;;;0.82;0.80;;;9.80;99.90;;;;;;5097532;28;20209;-59
2022/04/08 11:24:09;;;;;;;1.90;0.95;;;9.90;99.90;;;;;;5097102;28;20182;-59
2022/04/08 11:26:51;;;;;;;1.23;0.70;;;9.90;99.90;;;;;;5096953;28;20271;-58
2022/04/08 11:29:22;;;;;;;1.08;0.98;;;10.00;99.90;;;;;;5096860;28;20173;-58
2022/04/08 11:31:49;;;;;;;1.58;0.85;;;10.00;99.90;;;;;;5096791;28;20173;-58
2022/04/08 11:34:15;;;;;;;1.88;1.00;;;9.90;99.90;;;;;;5097032;28;20582;-59
2022/04/08 11:36:42;;;;;;;1.90;0.90;;;9.70;99.90;;;;;;5096846;28;20520;-59
2022/04/08 11:39:09;;;;;;;0.70;0.70;;;9.70;99.90;;;;;;5096803;28;20170;-59
2022/04/08 11:41:36;;;;;;;1.48;0.93;;;9.80;99.90;;;;;;5096603;28;20200;-59
2022/04/08 11:44:07;;;;;;;0.77;0.77;;;9.80;99.90;;;;;;5096527;28;20655;-59
2022/04/08 11:46:33;;;;;;;1.25;0.90;;;9.90;99.90;;;;;;5096509;28;20227;-59
2022/04/08 11:49:02;;;;;;;1.90;0.73;;;9.90;99.90;;;;;;5096748;28;20575;-58
2022/04/08 11:51:27;;;;;;;2.28;0.60;;;10.00;99.90;;;;;;5096408;28;20170;-59
2022/04/08 11:53:53;;;;;;;1.05;0.80;;;10.00;99.90;;;;;;5078582;28;20741;-59
2022/04/08 11:56:21;;;;;;;0.75;0.60;;;10.10;99.90;;;;;;5096516;28;20542;-59
2022/04/08 11:59:05;;;;;;;0.95;0.70;;;10.10;99.90;;;;;;5093366;28;20174;-58
2022/04/08 12:01:33;;;;;;;1.70;0.77;;;10.10;99.90;;;;;;5096308;28;20166;-58
2022/04/08 12:04:11;;;;;;;2.03;0.80;;;10.00;99.90;;;;;;5096466;28;20665;-58
2022/04/08 12:06:45;;;;;;;1.20;0.80;;;10.10;99.90;;;;;;5096032;28;20184;-58
2022/04/08 12:09:15;;;;;;;1.17;0.60;;;10.10;99.90;;;;;;5095691;28;20523;-58
2022/04/08 12:11:44;;;;;;;1.02;0.60;;;10.10;99.90;;;;;;5096361;28;20227;-58
2022/04/08 12:14:10;;;;;;;1.63;0.93;;;10.10;99.90;;;;;;5096101;28;20244;-58
2022/04/08 12:16:38;;;;;;;0.30;0.30;;;10.10;99.90;;;;;;5095937;28;20176;-58
2022/04/08 12:19:05;;;;;;;0.40;0.40;;;10.30;99.90;;;;;;5095908;28;20272;-58
2022/04/08 12:21:31;;;;;;;1.17;0.70;;;10.30;99.90;;;;;;5095870;28;20177;-58
2022/04/08 12:24:02;;;;;;;0.75;0.70;;;10.20;99.90;;;;;;5095724;28;20227;-58
2022/04/08 12:26:30;;;;;;;1.25;1.02;;;10.20;99.90;;;;;;5096040;28;20166;-58
2022/04/08 12:29:13;;;;;;;1.90;0.75;;;10.20;99.90;;;;;;5095909;28;20636;-58
2022/04/08 12:31:59;;;;;;;2.03;1.10;;;10.00;99.90;;;;;;5095657;28;20532;-58
2022/04/08 12:34:25;;;;;;;1.48;0.80;;;10.10;99.90;;;;;;5095512;28;20379;-58
2022/04/08 12:36:50;;;;;;;1.13;1.02;;;10.10;99.90;;;;;;5095716;28;20261;-58
2022/04/08 12:39:17;;;;;;;0.70;0.70;;;10.30;99.90;;;;;;5095763;28;20178;-58
2022/04/08 12:41:44;;;;;;;1.98;1.10;;;10.40;99.90;;;;;;5095586;28;20261;-58
2022/04/08 12:44:10;;;;;;;1.90;0.80;;;10.40;99.90;;;;;;5095356;28;20647;-58
2022/04/08 12:46:37;;;;;;;2.20;0.90;;;10.50;99.90;;;;;;5095243;28;20205;-58
2022/04/08 12:49:04;;;;;;;1.35;0.80;;;10.70;99.90;;;;;;5095444;28;20174;-58
2022/04/08 12:51:30;;;;;;;1.50;0.73;;;10.70;99.90;;;;;;5095331;28;20178;-58
2022/04/08 12:53:57;;;;;;;1.92;0.80;;;10.80;99.90;;;;;;5095109;28;20209;-58